createdAt,value
2018-07-27T00:01:47.019Z,8.50
2018-07-27T00:04:21.735Z,8.73
2018-07-27T00:06:52.743Z,9.23
2018-07-27T00:09:23.196Z,9.43
2018-07-27T00:11:54.625Z,9.97
2018-07-27T00:14:24.635Z,10.70
2018-07-27T00:16:54.988Z,10.03
2018-07-27T00:19:27.992Z,11.50
2018-07-27T00:21:58.916Z,10.63
2018-07-27T00:41:50.305Z,12.43
2018-07-27T00:44:21.169Z,11.90
2018-07-27T00:46:50.640Z,12.63
2018-07-27T00:49:21.507Z,12.80
2018-07-27T00:51:51.214Z,12.57
2018-07-27T00:54:20.733Z,13.00
2018-07-27T00:56:50.161Z,13.63
2018-07-27T00:59:20.215Z,13.63
2018-07-27T01:01:51.038Z,13.30
2018-07-27T01:04:20.771Z,12.70
2018-07-27T01:06:51.479Z,13.70
2018-07-27T01:09:20.980Z,13.33
2018-07-27T01:11:50.715Z,12.60
2018-07-27T01:31:42.570Z,13.40
2018-07-27T01:34:12.300Z,13.80
2018-07-27T01:36:41.790Z,13.10
2018-07-27T01:39:15.182Z,12.73
2018-07-27T01:41:44.763Z,14.03
2018-07-27T01:44:14.394Z,13.10
2018-07-27T01:46:44.482Z,12.13
2018-07-27T01:49:14.426Z,12.90
2018-07-27T01:51:43.926Z,13.40
2018-07-27T01:54:13.463Z,13.23
2018-07-27T01:56:43.239Z,12.80
2018-07-27T01:59:12.982Z,12.27
2018-07-27T02:01:43.076Z,12.87
2018-07-27T02:21:35.861Z,13.83
2018-07-27T02:24:05.792Z,13.10
2018-07-27T02:26:35.195Z,12.87
2018-07-27T02:29:04.785Z,12.87
2018-07-27T02:31:34.415Z,12.40
2018-07-27T02:51:27.114Z,9.57
2018-07-27T02:53:57.492Z,8.90
2018-07-27T02:56:27.199Z,9.17
2018-07-27T02:58:56.995Z,8.30
2018-07-27T03:01:26.955Z,8.10
2018-07-27T03:03:56.626Z,7.33
2018-07-27T03:06:25.982Z,7.90
2018-07-27T03:08:55.771Z,8.00
2018-07-27T03:28:48.098Z,14.27
2018-07-27T03:31:18.059Z,10.73
2018-07-27T03:33:47.537Z,9.43
2018-07-27T03:36:17.040Z,8.30
2018-07-27T03:38:46.634Z,9.77
2018-07-27T03:41:16.259Z,9.03
2018-07-27T04:01:06.779Z,15.77
2018-07-27T04:03:36.192Z,12.23
2018-07-27T04:06:05.798Z,15.23
2018-07-27T04:08:35.628Z,12.00
2018-07-27T04:11:05.320Z,12.53
2018-07-27T04:13:34.918Z,11.23
2018-07-27T04:33:26.897Z,17.37
2018-07-27T04:53:19.049Z,21.37
2018-07-27T04:55:48.800Z,42.87
2018-07-27T05:15:39.758Z,19.50
2018-07-27T05:18:09.325Z,19.30
2018-07-27T05:20:38.722Z,19.20
2018-07-27T05:23:08.299Z,18.23
2018-07-27T05:25:37.895Z,16.90
2018-07-27T06:03:04.602Z,20.73
2018-07-27T06:05:34.586Z,25.07
2018-07-27T06:08:04.256Z,16.43
2018-07-27T06:10:33.603Z,14.17
2018-07-27T06:13:03.172Z,17.37
2018-07-27T06:15:32.987Z,17.03
2018-07-27T06:18:02.571Z,16.20
2018-07-27T06:37:54.022Z,18.30
2018-07-27T06:40:23.411Z,17.63
2018-07-27T06:42:53.040Z,19.60
2018-07-27T07:02:44.875Z,25.50
2018-07-27T07:05:14.538Z,25.43
2018-07-27T07:07:44.377Z,25.60
2018-07-27T07:10:14.315Z,24.73
2018-07-27T07:12:44.407Z,24.23
2018-07-27T07:15:14.313Z,25.70
2018-07-27T07:17:44.303Z,24.63
2018-07-27T07:20:14.080Z,25.63
2018-07-27T07:22:43.777Z,26.63
2018-07-27T07:25:13.905Z,24.53
2018-07-27T07:27:43.407Z,26.70
2018-07-27T07:47:35.543Z,22.07
2018-07-27T07:50:05.701Z,23.03
2018-07-27T07:52:35.504Z,20.87
2018-07-27T07:55:05.623Z,19.93
2018-07-27T07:57:35.518Z,19.17
2018-07-27T08:00:06.441Z,18.20
2018-07-27T08:02:35.916Z,17.53
2018-07-27T08:05:06.328Z,17.70
2018-07-27T08:07:35.973Z,16.60
2018-07-27T08:10:05.672Z,16.03
2018-07-27T08:12:36.668Z,17.10
2018-07-27T08:15:06.544Z,16.27
2018-07-27T08:17:36.468Z,15.43
2018-07-27T08:20:06.727Z,16.27
2018-07-27T08:22:36.255Z,16.40
2018-07-27T08:25:06.282Z,15.70
2018-07-27T08:27:35.865Z,16.10
2018-07-27T08:30:05.614Z,16.37
2018-07-27T08:32:35.364Z,15.93
2018-07-27T08:35:05.499Z,15.53
2018-07-27T08:37:35.339Z,15.77
2018-07-27T08:40:05.626Z,16.50
2018-07-27T08:42:35.573Z,15.43
2018-07-27T08:45:05.671Z,15.43
2018-07-27T08:47:35.237Z,15.23
2018-07-27T08:50:05.493Z,14.50
2018-07-27T09:09:56.825Z,13.87
2018-07-27T09:29:48.610Z,12.63
2018-07-27T10:04:20.080Z,10.70
2018-07-27T10:06:52.577Z,10.90
2018-07-27T10:09:23.103Z,10.27
2018-07-27T10:29:15.252Z,10.03
2018-07-27T10:31:48.283Z,9.47
2018-07-27T10:34:19.490Z,9.50
2018-07-27T10:36:49.888Z,8.73
2018-07-27T10:39:20.264Z,8.90
2018-07-27T10:41:50.948Z,9.33
2018-07-27T10:44:21.749Z,9.53
2018-07-27T10:46:51.829Z,8.83
2018-07-27T10:49:21.709Z,8.63
2018-07-27T10:51:51.557Z,7.33
2018-07-27T10:54:21.974Z,7.50
2018-07-27T10:56:52.142Z,6.83
2018-07-27T10:59:21.932Z,7.67
2018-07-27T11:01:51.982Z,6.57
2018-07-27T11:04:21.789Z,7.50
2018-07-27T11:06:51.749Z,8.03
2018-07-27T11:26:44.297Z,6.00
2018-07-27T11:29:14.402Z,6.60
2018-07-27T11:31:44.459Z,6.40
2018-07-27T11:34:15.060Z,5.70
2018-07-27T11:36:45.109Z,6.33
2018-07-27T11:39:15.134Z,6.13
2018-07-27T11:41:45.506Z,6.47
2018-07-27T12:01:36.857Z,8.03
2018-07-27T12:04:07.099Z,7.23
2018-07-27T12:06:37.067Z,7.63
2018-07-27T12:09:10.003Z,6.87
2018-07-27T12:11:39.906Z,7.17
2018-07-27T12:31:32.529Z,6.87
2018-07-27T12:34:02.377Z,7.00
2018-07-27T12:36:34.400Z,6.57
2018-07-27T12:56:25.667Z,4.67
2018-07-27T12:58:56.043Z,3.90
2018-07-27T13:01:25.672Z,4.00
2018-07-27T13:03:55.308Z,3.60
2018-07-27T13:06:25.233Z,3.40
2018-07-27T13:08:54.994Z,3.40
2018-07-27T13:11:24.790Z,2.97
2018-07-27T13:31:15.813Z,3.30
2018-07-27T13:34:01.211Z,3.63
2018-07-27T13:36:31.180Z,3.90
2018-07-27T13:39:00.849Z,4.57
2018-07-27T13:41:30.749Z,3.60
2018-07-27T14:07:11.043Z,2.80
2018-07-27T14:09:41.008Z,3.50
2018-07-27T14:12:10.482Z,4.30
2018-07-27T14:14:40.040Z,3.57
2018-07-27T14:17:10.761Z,4.07
2018-07-27T14:19:40.305Z,4.67
2018-07-27T14:22:12.114Z,4.83
2018-07-27T14:24:46.090Z,4.23
2018-07-27T14:27:17.457Z,4.33
2018-07-27T14:29:52.068Z,3.67
2018-07-27T14:32:24.921Z,6.27
2018-07-27T14:34:55.885Z,6.17
2018-07-27T14:54:52.437Z,5.93
2018-07-27T14:57:25.352Z,6.70
2018-07-27T14:59:56.262Z,6.97
2018-07-27T15:02:26.174Z,7.10
2018-07-27T15:04:56.142Z,6.87
2018-07-27T15:07:26.005Z,6.57
2018-07-27T15:27:18.787Z,7.50
2018-07-27T15:29:48.727Z,7.37
2018-07-27T15:32:18.742Z,7.30
2018-07-27T15:34:48.538Z,7.30
2018-07-27T15:37:18.604Z,7.83
2018-07-27T15:39:48.359Z,7.87
2018-07-27T15:42:18.411Z,8.40
2018-07-27T15:44:51.734Z,8.00
2018-07-27T15:47:22.248Z,8.33
2018-07-27T15:49:53.601Z,7.13
2018-07-27T15:52:23.089Z,7.77
2018-07-27T15:54:52.573Z,7.40
2018-07-27T15:57:22.987Z,7.00
2018-07-27T15:59:53.283Z,7.53
2018-07-27T16:02:26.521Z,6.90
2018-07-27T16:22:20.272Z,6.20
2018-07-27T16:42:16.897Z,6.07
2018-07-27T16:44:46.834Z,6.03
2018-07-27T16:47:17.266Z,37.50
2018-07-27T17:07:08.994Z,307.80
2018-07-27T17:09:38.934Z,48.83
2018-07-27T17:12:08.749Z,41.27
2018-07-27T17:14:38.553Z,573.20
2018-07-27T17:34:30.358Z,987.57
2018-07-27T17:37:00.242Z,207.00
2018-07-27T17:39:29.898Z,390.20
2018-07-27T17:41:59.851Z,913.17
2018-07-27T17:44:29.293Z,795.90
2018-07-27T17:46:58.828Z,51.00
2018-07-27T17:49:28.663Z,47.93
2018-07-27T18:09:20.288Z,11.53
2018-07-27T18:11:49.812Z,12.40
2018-07-27T18:14:19.251Z,9.37
2018-07-27T18:16:48.810Z,13.40
2018-07-27T18:19:18.550Z,19.73
2018-07-27T18:21:48.813Z,16.47
2018-07-27T18:24:18.637Z,9.43
2018-07-27T18:26:48.893Z,16.90
2018-07-27T18:29:18.582Z,11.60
2018-07-27T18:31:48.095Z,11.33
2018-07-27T18:51:40.746Z,9.47
2018-07-27T19:11:33.602Z,10.73
2018-07-27T19:14:03.467Z,10.53
2018-07-27T19:33:56.295Z,9.87
2018-07-27T19:36:26.046Z,9.87
2018-07-27T19:56:17.580Z,9.27
2018-07-27T20:16:09.402Z,9.03
2018-07-27T20:18:39.057Z,8.60
2018-07-27T20:21:08.831Z,8.83
2018-07-27T20:23:38.643Z,8.37
2018-07-27T20:26:08.133Z,8.27
2018-07-27T20:28:38.085Z,8.87
2018-07-27T20:31:08.310Z,7.90
2018-07-27T20:33:37.886Z,8.77
2018-07-27T20:36:07.678Z,9.10
2018-07-27T20:38:37.633Z,8.80
2018-07-27T20:41:07.561Z,9.07
2018-07-27T20:43:37.159Z,8.10
2018-07-27T20:46:06.749Z,9.13
2018-07-27T20:48:36.394Z,10.23
2018-07-27T20:51:06.165Z,9.67
2018-07-27T20:53:36.028Z,10.70
2018-07-27T20:56:05.900Z,10.03
2018-07-27T20:58:35.710Z,25.33
2018-07-27T21:01:05.458Z,12.30
2018-07-27T21:03:34.838Z,56.07
2018-07-27T21:06:04.350Z,11.63
2018-07-27T21:08:33.991Z,10.33
2018-07-27T21:11:03.851Z,11.27
2018-07-27T21:13:33.468Z,11.23
2018-07-27T21:16:02.997Z,10.93
2018-07-27T21:18:32.689Z,10.50
2018-07-27T21:21:02.112Z,9.63
2018-07-27T21:23:31.768Z,9.07
2018-07-27T21:26:01.150Z,9.17
2018-07-27T21:28:30.607Z,9.30
2018-07-27T21:31:00.574Z,8.30
2018-07-27T21:33:30.198Z,8.23
2018-07-27T21:35:59.854Z,8.37
2018-07-27T21:38:29.608Z,9.10
2018-07-27T21:40:59.168Z,9.03
2018-07-27T21:43:29.626Z,8.97
2018-07-27T21:45:59.263Z,9.30
2018-07-27T21:48:28.622Z,9.10
2018-07-27T21:50:58.309Z,9.03
2018-07-27T21:53:27.979Z,9.27
2018-07-27T21:55:58.357Z,8.27
2018-07-27T21:58:27.947Z,8.97
2018-07-27T22:00:57.979Z,8.50
2018-07-27T22:03:27.498Z,8.30
2018-07-27T22:05:56.965Z,8.50
2018-07-27T22:08:26.609Z,8.83
2018-07-27T22:10:56.339Z,10.13
2018-07-27T22:13:25.823Z,9.37
2018-07-27T22:15:55.907Z,9.90
2018-07-27T22:18:25.768Z,10.80
2018-07-27T22:20:55.513Z,9.57
2018-07-27T22:23:25.685Z,9.13
2018-07-27T22:25:55.606Z,8.90
2018-07-27T22:28:26.397Z,8.87
2018-07-27T22:30:56.054Z,8.90
2018-07-27T22:33:25.664Z,10.77
2018-07-27T22:35:55.694Z,9.50
2018-07-27T22:38:25.393Z,9.83
2018-07-27T22:40:55.321Z,8.10
2018-07-27T22:43:24.942Z,8.87
2018-07-27T22:45:58.159Z,9.17
2018-07-27T22:48:27.877Z,8.40
2018-07-27T22:50:57.327Z,9.13
2018-07-27T22:53:27.133Z,11.17
2018-07-27T22:55:58.554Z,9.27
2018-07-27T22:58:28.145Z,8.67
2018-07-27T23:00:58.002Z,9.10
2018-07-27T23:03:28.858Z,8.57
2018-07-27T23:05:58.198Z,9.20
2018-07-27T23:08:29.276Z,8.73
2018-07-27T23:10:59.026Z,11.10
2018-07-27T23:13:28.455Z,9.17
2018-07-27T23:15:59.497Z,9.33
2018-07-27T23:18:29.095Z,9.47
2018-07-27T23:20:58.501Z,9.63
2018-07-27T23:23:28.077Z,9.33
2018-07-27T23:26:02.462Z,9.03
2018-07-27T23:28:32.112Z,8.77
2018-07-27T23:31:01.977Z,9.33
2018-07-27T23:33:31.559Z,9.30
2018-07-27T23:36:01.077Z,9.57
2018-07-27T23:38:30.738Z,9.37
2018-07-27T23:41:00.787Z,9.37
2018-07-27T23:43:32.146Z,9.30
2018-07-27T23:46:02.137Z,10.00
2018-07-27T23:48:32.029Z,9.07
2018-07-27T23:51:01.696Z,11.50
2018-07-27T23:53:31.245Z,9.27
2018-07-27T23:56:00.683Z,9.73
2018-07-27T23:58:30.309Z,11.07
